Time;durP1;ratioP1;P1;durP2;ratioP2;P2;SDS_P1;SDS_P2;PMS_P1;PMS_P2;Temp;Humidity;BMP_temperature;BMP_pressure;BME280_temperature;BME280_humidity;BME280_pressure;Samples;Min_cycle;Max_cycle;Signal;HPM_P1;HPM_P2
2023/08/16 00:01:26;;;;;;;4.35;1.80;;;15.60;99.90;;;;;;5059508;28;20153;-71
2023/08/16 00:03:55;;;;;;;6.20;1.80;;;15.70;99.90;;;;;;5060257;28;20032;-72
2023/08/16 00:06:20;;;;;;;6.45;1.85;;;15.70;99.90;;;;;;5059103;28;20483;-72
2023/08/16 00:08:46;;;;;;;5.18;1.90;;;15.60;99.90;;;;;;5074839;28;20036;-72
2023/08/16 00:11:12;;;;;;;5.20;1.80;;;15.50;99.90;;;;;;5076004;28;20105;-71
2023/08/16 00:13:41;;;;;;;6.90;2.30;;;15.50;99.90;;;;;;5059066;28;20038;-71
2023/08/16 00:16:07;;;;;;;5.47;2.42;;;15.50;99.90;;;;;;5075516;28;20119;-71
2023/08/16 00:18:33;;;;;;;6.15;1.75;;;15.50;99.90;;;;;;5059355;28;20535;-71
2023/08/16 00:21:02;;;;;;;4.50;1.70;;;15.40;99.90;;;;;;5094242;28;20069;-71
2023/08/16 00:23:28;;;;;;;4.22;1.77;;;15.40;99.90;;;;;;5075502;28;20096;-72
2023/08/16 00:25:54;;;;;;;6.43;1.80;;;15.40;99.90;;;;;;5058782;28;20044;-71
2023/08/16 00:28:20;;;;;;;5.03;1.65;;;15.40;99.90;;;;;;5059037;28;20032;-72
2023/08/16 00:30:49;;;;;;;4.90;1.70;;;15.40;99.90;;;;;;5042453;28;20496;-72
2023/08/16 00:33:24;;;;;;;3.90;1.50;;;15.40;99.90;;;;;;5045344;28;20139;-72
2023/08/16 00:35:55;;;;;;;5.55;1.70;;;15.40;99.90;;;;;;5075007;28;20110;-73
2023/08/16 00:38:21;;;;;;;4.18;1.55;;;15.40;99.90;;;;;;5058586;28;20043;-72
2023/08/16 00:40:50;;;;;;;4.80;2.00;;;15.40;99.90;;;;;;5075243;28;20377;-72
2023/08/16 00:43:26;;;;;;;6.93;2.42;;;15.40;99.90;;;;;;5075474;28;20040;-72
2023/08/16 00:45:52;;;;;;;5.53;2.30;;;15.40;99.90;;;;;;5058773;28;20518;-72
2023/08/16 00:48:18;;;;;;;4.85;1.83;;;15.40;99.90;;;;;;5075170;28;20040;-72
2023/08/16 00:50:48;;;;;;;4.97;1.90;;;15.30;99.90;;;;;;5075049;28;20040;-72
2023/08/16 00:53:18;;;;;;;4.95;1.70;;;15.30;99.90;;;;;;5074959;28;20047;-72
2023/08/16 00:55:45;;;;;;;4.80;2.00;;;15.40;99.90;;;;;;5058794;28;20518;-72
2023/08/16 00:58:11;;;;;;;4.40;1.77;;;15.30;99.90;;;;;;5093203;28;20036;-72
2023/08/16 01:00:36;;;;;;;5.15;1.65;;;15.30;99.90;;;;;;5075017;28;20043;-71
2023/08/16 01:03:03;;;;;;;4.03;1.55;;;15.40;99.90;;;;;;5075113;28;20040;-71
2023/08/16 01:05:30;;;;;;;5.35;1.60;;;15.30;99.90;;;;;;5025832;28;20051;-72
2023/08/16 01:07:59;;;;;;;4.70;1.67;;;15.30;99.90;;;;;;5075344;28;20058;-71
2023/08/16 01:10:58;;;;;;;3.65;1.50;;;15.30;99.90;;;;;;5058709;28;20040;-71
2023/08/16 01:13:46;;;;;;;4.03;1.40;;;15.30;99.90;;;;;;5074875;28;20442;-72
2023/08/16 01:16:12;;;;;;;3.95;1.50;;;15.30;99.90;;;;;;5075045;28;20036;-71
2023/08/16 01:18:41;;;;;;;3.83;1.60;;;15.30;99.90;;;;;;5075022;28;20108;-73
2023/08/16 01:21:13;;;;;;;4.38;1.80;;;15.30;99.90;;;;;;5077421;28;20040;-73
2023/08/16 01:24:25;;;;;;;4.25;1.60;;;15.20;99.90;;;;;;5095657;28;20036;-71
2023/08/16 01:26:53;;;;;;;4.70;1.63;;;15.10;99.90;;;;;;5078704;28;20111;-71
2023/08/16 01:29:20;;;;;;;4.55;1.50;;;15.10;99.90;;;;;;5078922;28;20439;-71
2023/08/16 01:31:45;;;;;;;3.85;1.70;;;15.10;99.90;;;;;;5062324;28;20487;-72
2023/08/16 01:34:11;;;;;;;8.25;2.50;;;15.10;99.90;;;;;;5062081;28;20119;-71
2023/08/16 01:36:39;;;;;;;5.88;2.17;;;15.10;99.90;;;;;;5078515;28;20060;-71
2023/08/16 01:39:05;;;;;;;5.85;2.30;;;15.00;99.90;;;;;;5045461;28;20515;-73
2023/08/16 01:41:41;;;;;;;5.65;2.28;;;14.80;99.90;;;;;;5078603;28;20044;-70
2023/08/16 01:44:11;;;;;;;4.30;1.80;;;14.80;99.90;;;;;;5078403;28;20044;-71
2023/08/16 01:46:40;;;;;;;5.30;1.88;;;14.80;99.90;;;;;;5078399;28;20078;-65
2023/08/16 01:49:18;;;;;;;5.00;1.90;;;14.80;99.90;;;;;;5078666;28;20040;-65
2023/08/16 01:51:47;;;;;;;5.05;1.70;;;14.80;99.90;;;;;;5078422;28;20075;-66
2023/08/16 01:54:25;;;;;;;4.78;1.63;;;14.80;99.90;;;;;;5062211;28;20040;-72
2023/08/16 01:56:51;;;;;;;6.60;1.83;;;14.80;99.90;;;;;;5062808;28;20123;-71
2023/08/16 01:59:17;;;;;;;5.75;2.35;;;14.80;99.90;;;;;;5028470;28;20158;-72
2023/08/16 02:01:43;;;;;;;5.20;1.75;;;14.80;99.90;;;;;;5045056;28;20484;-72
2023/08/16 02:04:09;;;;;;;5.88;1.83;;;14.80;99.90;;;;;;5061479;28;20044;-70
2023/08/16 02:06:38;;;;;;;4.95;2.00;;;14.70;99.90;;;;;;5061203;28;20044;-71
2023/08/16 02:09:05;;;;;;;5.22;1.90;;;14.70;99.90;;;;;;5028624;28;20050;-72
2023/08/16 02:11:36;;;;;;;4.88;2.22;;;14.70;99.90;;;;;;5062225;28;20040;-71
2023/08/16 02:14:03;;;;;;;5.85;2.20;;;14.70;99.90;;;;;;5077939;28;20036;-71
2023/08/16 02:16:29;;;;;;;4.90;2.05;;;14.70;99.90;;;;;;5077879;28;20058;-71
2023/08/16 02:18:54;;;;;;;4.80;1.85;;;14.70;99.90;;;;;;5061523;28;20036;-72
2023/08/16 02:21:24;;;;;;;5.35;2.40;;;14.70;99.90;;;;;;5044742;28;20032;-72
2023/08/16 02:23:50;;;;;;;5.90;2.20;;;14.70;99.90;;;;;;5061232;28;20044;-70
2023/08/16 02:26:15;;;;;;;6.47;2.15;;;14.70;99.90;;;;;;5061239;28;20048;-71
2023/08/16 02:28:41;;;;;;;7.70;2.80;;;14.70;99.90;;;;;;5061159;28;20079;-72
2023/08/16 02:31:10;;;;;;;5.65;2.33;;;14.70;99.90;;;;;;5060675;28;20082;-72
2023/08/16 02:33:36;;;;;;;4.80;2.10;;;14.60;99.90;;;;;;5077878;28;20042;-71
2023/08/16 02:36:02;;;;;;;6.18;2.58;;;14.60;99.90;;;;;;5060750;28;20127;-71
2023/08/16 02:38:28;;;;;;;7.63;2.80;;;14.50;99.90;;;;;;5078034;28;20518;-72
2023/08/16 02:40:54;;;;;;;5.22;2.30;;;14.40;99.90;;;;;;5077407;28;20036;-72
2023/08/16 02:43:23;;;;;;;6.43;3.05;;;14.40;99.90;;;;;;5077660;28;20484;-72
2023/08/16 02:45:53;;;;;;;5.43;2.30;;;14.30;99.90;;;;;;5029936;28;20036;-71
2023/08/16 02:48:22;;;;;;;6.68;2.28;;;14.30;99.90;;;;;;5077387;28;20101;-72
2023/08/16 02:50:49;;;;;;;4.78;2.20;;;14.30;99.90;;;;;;5061091;28;20050;-71
2023/08/16 02:53:18;;;;;;;5.50;2.38;;;14.30;99.90;;;;;;5077028;28;20044;-72
2023/08/16 02:55:44;;;;;;;5.55;2.10;;;14.20;99.90;;;;;;5060490;28;20396;-71
2023/08/16 02:58:09;;;;;;;5.55;2.20;;;14.20;99.90;;;;;;5077102;28;20069;-65
2023/08/16 03:00:35;;;;;;;3.90;2.00;;;14.20;99.90;;;;;;5076949;28;20044;-66
2023/08/16 03:03:01;;;;;;;5.45;2.70;;;14.20;99.90;;;;;;5077329;28;20032;-66
2023/08/16 03:05:27;;;;;;;7.80;3.05;;;14.30;99.90;;;;;;5077042;28;20036;-66
2023/08/16 03:07:53;;;;;;;4.28;2.20;;;14.20;99.90;;;;;;5076934;28;20126;-66
2023/08/16 03:10:19;;;;;;;4.95;2.13;;;14.30;99.90;;;;;;5077019;28;20075;-65
2023/08/16 03:12:49;;;;;;;4.85;2.17;;;14.30;99.90;;;;;;5060384;28;20445;-65
2023/08/16 03:15:15;;;;;;;4.40;2.25;;;14.30;99.90;;;;;;5060205;28;20040;-65
2023/08/16 03:17:40;;;;;;;5.05;2.13;;;14.20;99.90;;;;;;5076846;28;20133;-66
2023/08/16 03:20:08;;;;;;;6.53;2.00;;;14.20;99.90;;;;;;5060032;28;20485;-66
2023/08/16 03:22:34;;;;;;;4.00;2.10;;;14.10;99.90;;;;;;5076727;28;20048;-66
2023/08/16 03:25:00;;;;;;;6.40;2.60;;;14.00;99.90;;;;;;5076557;28;20089;-65
2023/08/16 03:27:35;;;;;;;5.72;2.40;;;14.00;99.90;;;;;;5059822;28;20043;-66
2023/08/16 03:30:11;;;;;;;4.95;2.25;;;14.00;99.90;;;;;;5076616;28;20040;-66
2023/08/16 03:32:37;;;;;;;5.10;2.03;;;14.00;99.90;;;;;;5076393;28;20082;-65
2023/08/16 03:35:04;;;;;;;3.90;1.73;;;14.00;99.90;;;;;;5056370;28;20044;-65
2023/08/16 03:37:31;;;;;;;4.82;2.33;;;14.10;99.90;;;;;;5056616;28;20543;-65
2023/08/16 03:39:58;;;;;;;4.88;2.17;;;14.10;99.90;;;;;;5023961;28;20086;-65
2023/08/16 03:42:23;;;;;;;4.88;2.25;;;14.00;99.90;;;;;;5039784;28;20127;-65
2023/08/16 03:44:49;;;;;;;4.70;2.03;;;14.00;99.90;;;;;;5073181;28;20080;-65
2023/08/16 03:47:15;;;;;;;5.72;2.03;;;14.00;99.90;;;;;;5056472;28;20048;-64
2023/08/16 03:49:43;;;;;;;4.25;1.90;;;14.00;99.90;;;;;;5056031;28;20051;-66
2023/08/16 03:52:09;;;;;;;6.15;3.67;;;14.00;99.90;;;;;;5072685;28;20044;-65
2023/08/16 03:54:35;;;;;;;5.60;2.33;;;14.00;99.90;;;;;;5056060;28;20499;-66
2023/08/16 03:57:02;;;;;;;6.72;2.10;;;13.90;99.90;;;;;;5056417;28;20468;-65
2023/08/16 03:59:27;;;;;;;4.93;2.85;;;13.90;99.90;;;;;;5056347;28;20098;-65
2023/08/16 04:01:54;;;;;;;4.80;2.22;;;13.90;99.90;;;;;;5072932;28;20033;-65
2023/08/16 04:04:19;;;;;;;5.15;2.30;;;13.90;99.90;;;;;;5023231;28;20044;-65
2023/08/16 04:06:45;;;;;;;6.05;2.03;;;13.80;99.90;;;;;;5055808;28;20044;-67
2023/08/16 04:09:11;;;;;;;9.48;3.90;;;13.90;99.90;;;;;;5056086;28;20047;-66
2023/08/16 04:11:37;;;;;;;5.45;2.10;;;13.80;99.90;;;;;;5055754;28;20094;-66
2023/08/16 04:14:03;;;;;;;5.03;2.28;;;13.80;99.90;;;;;;5072474;28;20037;-67
2023/08/16 04:16:29;;;;;;;6.00;2.33;;;13.80;99.90;;;;;;5055583;28;20067;-66
2023/08/16 04:18:54;;;;;;;7.50;2.60;;;13.80;99.90;;;;;;5072339;28;20041;-66
2023/08/16 04:21:20;;;;;;;3.50;1.70;;;13.70;99.90;;;;;;5055836;28;20045;-65
2023/08/16 04:23:46;;;;;;;6.15;2.58;;;13.60;99.90;;;;;;5072176;28;20040;-65
2023/08/16 04:26:12;;;;;;;4.07;1.90;;;13.50;99.90;;;;;;5072180;28;20047;-65
2023/08/16 04:28:38;;;;;;;7.32;3.90;;;13.50;99.90;;;;;;5072082;28;20048;-66
2023/08/16 04:31:06;;;;;;;4.60;2.15;;;13.40;99.90;;;;;;5071963;28;20470;-68
2023/08/16 04:33:32;;;;;;;5.25;2.90;;;13.40;99.90;;;;;;5055783;28;20063;-66
2023/08/16 04:35:58;;;;;;;6.40;3.30;;;13.40;99.90;;;;;;5055297;28;20040;-67
2023/08/16 04:38:24;;;;;;;6.72;3.00;;;13.30;99.90;;;;;;5072030;28;20408;-66
2023/08/16 04:40:50;;;;;;;5.30;2.38;;;13.30;99.90;;;;;;5071941;28;20503;-66
2023/08/16 04:43:19;;;;;;;5.22;2.70;;;13.30;99.90;;;;;;5055269;28;20518;-68
2023/08/16 04:45:45;;;;;;;9.30;5.10;;;13.30;99.90;;;;;;5072140;28;20037;-66
2023/08/16 04:48:12;;;;;;;5.97;2.88;;;13.30;99.90;;;;;;5072010;28;20126;-66
2023/08/16 04:50:38;;;;;;;5.93;2.85;;;13.30;99.90;;;;;;5055461;28;20044;-66
2023/08/16 04:53:07;;;;;;;8.05;3.67;;;13.30;99.90;;;;;;5055149;28;20102;-66
2023/08/16 04:55:33;;;;;;;7.68;4.60;;;13.30;99.90;;;;;;5054644;28;20127;-67
2023/08/16 04:57:59;;;;;;;8.55;6.15;;;13.40;99.90;;;;;;5072082;28;20075;-65
2023/08/16 05:00:25;;;;;;;9.52;6.70;;;13.40;99.90;;;;;;5021930;28;20049;-66
2023/08/16 05:02:50;;;;;;;8.57;5.55;;;13.40;99.90;;;;;;5071776;28;20451;-66
2023/08/16 05:05:16;;;;;;;8.50;5.18;;;13.50;99.90;;;;;;5055314;28;20051;-65
2023/08/16 05:07:42;;;;;;;8.15;5.07;;;13.50;99.90;;;;;;5071630;28;20048;-67
2023/08/16 05:10:11;;;;;;;8.45;5.32;;;13.60;99.90;;;;;;5071667;28;20040;-65
2023/08/16 05:12:36;;;;;;;6.88;4.63;;;13.60;99.90;;;;;;5071513;28;20135;-64
2023/08/16 05:15:03;;;;;;;7.70;4.53;;;13.60;99.90;;;;;;5055221;28;20384;-65
2023/08/16 05:17:29;;;;;;;6.13;4.32;;;13.60;99.90;;;;;;5071730;28;20048;-66
2023/08/16 05:19:57;;;;;;;6.85;4.35;;;13.70;99.90;;;;;;5038412;28;20043;-65
2023/08/16 05:22:24;;;;;;;7.38;4.93;;;13.70;99.90;;;;;;5055277;28;20051;-65
2023/08/16 05:24:50;;;;;;;7.70;4.55;;;13.70;99.90;;;;;;5022288;28;20485;-65
2023/08/16 05:27:17;;;;;;;6.75;4.47;;;13.70;99.90;;;;;;5055170;28;20044;-66
2023/08/16 05:29:43;;;;;;;6.93;4.45;;;13.70;99.90;;;;;;5038296;28;20086;-65
2023/08/16 05:32:12;;;;;;;8.82;4.70;;;13.80;99.90;;;;;;5054713;28;20485;-65
2023/08/16 05:34:38;;;;;;;8.07;5.30;;;13.90;99.90;;;;;;5056084;28;20040;-64
2023/08/16 05:37:06;;;;;;;8.68;6.07;;;13.90;99.90;;;;;;5075104;28;20055;-65
2023/08/16 05:39:32;;;;;;;7.45;5.28;;;13.90;99.90;;;;;;5074781;28;20044;-65
2023/08/16 05:42:02;;;;;;;9.45;7.18;;;13.90;99.90;;;;;;5074873;28;20040;-64
2023/08/16 05:44:27;;;;;;;9.20;6.70;;;13.90;99.90;;;;;;5074656;28;20040;-64
2023/08/16 05:46:57;;;;;;;10.32;7.60;;;13.90;99.90;;;;;;5057930;28;20589;-64
2023/08/16 05:49:23;;;;;;;9.05;6.45;;;14.00;99.90;;;;;;5075590;28;20471;-65
2023/08/16 05:51:49;;;;;;;9.18;6.68;;;14.00;99.90;;;;;;5057857;28;20048;-65
2023/08/16 05:54:15;;;;;;;9.98;8.73;;;14.00;99.90;;;;;;5058047;28;20395;-65
2023/08/16 05:56:41;;;;;;;12.43;10.50;;;14.10;99.90;;;;;;5074787;28;20048;-65
2023/08/16 05:59:10;;;;;;;10.63;9.02;;;14.40;99.90;;;;;;5041598;28;20047;-63
2023/08/16 06:01:36;;;;;;;10.80;7.57;;;15.20;99.90;;;;;;5057819;28;20109;-65
2023/08/16 06:04:14;;;;;;;9.73;6.88;;;15.80;99.90;;;;;;5074615;28;20036;-65
2023/08/16 06:06:40;;;;;;;11.75;8.10;;;16.30;99.90;;;;;;5058969;28;20118;-66
2023/08/16 06:09:05;;;;;;;9.63;6.80;;;17.30;99.90;;;;;;5078098;28;20535;-65
2023/08/16 06:11:32;;;;;;;9.45;6.15;;;18.10;99.90;;;;;;5078244;28;20479;-64
2023/08/16 06:13:58;;;;;;;8.85;6.30;;;19.10;99.90;;;;;;5077948;28;20044;-64
2023/08/16 06:16:24;;;;;;;11.30;6.55;;;19.80;99.90;;;;;;5061126;28;20046;-64
2023/08/16 06:18:53;;;;;;;9.85;6.78;;;20.20;99.90;;;;;;5077859;28;20118;-64
2023/08/16 06:21:18;;;;;;;12.65;7.28;;;20.40;99.90;;;;;;5061663;28;20074;-64
2023/08/16 06:23:45;;;;;;;10.73;6.10;;;20.90;99.90;;;;;;5077677;28;20040;-65
2023/08/16 06:26:13;;;;;;;10.50;6.78;;;21.10;99.90;;;;;;5078078;28;20369;-69
2023/08/16 06:28:54;;;;;;;12.27;7.30;;;21.30;99.90;;;;;;5041358;28;20040;-71
2023/08/16 06:31:20;;;;;;;10.33;6.40;;;21.50;99.90;;;;;;5077348;28;20036;-71
2023/08/16 06:33:46;;;;;;;10.63;6.28;;;21.20;99.90;;;;;;5077248;28;20119;-70
2023/08/16 06:36:13;;;;;;;10.50;5.93;;;21.40;99.90;;;;;;5074623;28;20095;-69
2023/08/16 06:38:38;;;;;;;10.82;6.30;;;21.20;99.90;;;;;;5074449;28;20126;-70
2023/08/16 06:41:04;;;;;;;11.25;5.80;;;21.00;99.90;;;;;;5056713;28;20049;-70
2023/08/16 06:43:30;;;;;;;11.13;6.30;;;20.90;99.90;;;;;;5021555;28;20059;-71
2023/08/16 06:45:57;;;;;;;10.27;5.45;;;21.20;99.90;;;;;;5054275;28;20045;-71
2023/08/16 06:48:30;;;;;;;8.63;5.47;;;21.60;99.90;;;;;;5054391;28;20037;-72
2023/08/16 06:50:55;;;;;;;11.38;6.38;;;21.80;99.90;;;;;;5038680;28;20139;-69
2023/08/16 06:53:25;;;;;;;9.32;5.05;;;22.40;99.90;;;;;;5053808;28;20146;-70
2023/08/16 06:55:55;;;;;;;9.43;5.38;;;22.20;99.90;;;;;;5021966;28;20072;-70
2023/08/16 06:58:21;;;;;;;10.40;4.80;;;22.70;99.90;;;;;;5070531;28;20126;-70
2023/08/16 07:00:50;;;;;;;8.85;4.80;;;23.10;99.90;;;;;;5053663;28;20072;-70
2023/08/16 07:03:17;;;;;;;9.50;5.05;;;23.20;99.90;;;;;;5037583;28;20063;-70
2023/08/16 07:05:43;;;;;;;9.27;5.50;;;23.10;99.90;;;;;;5037138;28;20142;-70
2023/08/16 07:08:09;;;;;;;9.80;4.40;;;22.90;99.90;;;;;;5055090;28;20110;-70
2023/08/16 07:10:38;;;;;;;7.78;4.70;;;23.00;99.90;;;;;;5020414;28;20045;-72
2023/08/16 07:13:07;;;;;;;10.35;4.40;;;23.80;99.90;;;;;;5004184;28;20081;-71
2023/08/16 07:15:33;;;;;;;9.93;5.28;;;24.00;99.90;;;;;;5037844;28;20041;-71
2023/08/16 07:18:00;;;;;;;9.40;4.00;;;24.90;99.90;;;;;;5036362;28;20045;-72
2023/08/16 07:20:26;;;;;;;8.48;3.70;;;25.10;99.90;;;;;;5020403;28;20083;-70
2023/08/16 07:22:52;;;;;;;7.85;4.10;;;24.50;99.90;;;;;;5036835;28;20056;-70
2023/08/16 07:25:18;;;;;;;8.50;4.28;;;25.00;99.90;;;;;;5053306;28;20404;-71
2023/08/16 07:27:44;;;;;;;6.68;3.50;;;23.90;99.90;;;;;;5053203;28;20118;-70
2023/08/16 07:30:10;;;;;;;7.90;3.80;;;23.20;99.90;;;;;;5020593;28;20056;-71
2023/08/16 07:32:36;;;;;;;9.82;3.80;;;23.30;99.90;;;;;;5053108;28;20049;-71
2023/08/16 07:35:03;;;;;;;8.52;4.40;;;23.30;99.90;;;;;;5053083;28;20126;-71
2023/08/16 07:37:31;;;;;;;8.25;4.22;;;23.10;99.90;;;;;;5053385;28;20051;-71
2023/08/16 07:39:58;;;;;;;8.98;4.38;;;23.30;99.90;;;;;;5037016;28;20396;-65
2023/08/16 07:42:24;;;;;;;8.38;3.90;;;24.00;99.90;;;;;;5036474;28;20041;-66
2023/08/16 07:44:50;;;;;;;7.72;4.10;;;24.20;99.90;;;;;;5054184;28;20056;-65
2023/08/16 07:47:19;;;;;;;9.00;4.30;;;24.00;99.90;;;;;;5053345;28;20131;-64
2023/08/16 07:49:48;;;;;;;8.63;4.22;;;23.80;99.90;;;;;;5036350;28;20091;-66
2023/08/16 07:52:17;;;;;;;9.48;5.10;;;23.50;99.90;;;;;;5036197;28;20045;-65
2023/08/16 07:54:43;;;;;;;7.50;3.55;;;23.20;99.90;;;;;;5052956;28;20049;-64
2023/08/16 07:57:09;;;;;;;10.25;4.10;;;23.20;99.90;;;;;;5069542;28;20040;-64
2023/08/16 07:59:36;;;;;;;8.70;3.20;;;23.00;99.90;;;;;;5069341;28;20073;-66
2023/08/16 08:02:06;;;;;;;8.23;4.32;;;22.70;99.90;;;;;;5020761;28;20079;-65
2023/08/16 08:04:35;;;;;;;9.75;4.50;;;22.50;99.90;;;;;;5052469;28;20080;-71
2023/08/16 08:07:02;;;;;;;8.23;4.20;;;22.60;99.90;;;;;;5052757;28;20539;-72
2023/08/16 08:09:28;;;;;;;9.68;5.40;;;23.00;99.90;;;;;;5052454;28;20044;-72
2023/08/16 08:11:53;;;;;;;9.32;5.15;;;23.30;99.90;;;;;;5052595;28;20036;-71
2023/08/16 08:14:19;;;;;;;9.50;4.88;;;23.20;99.90;;;;;;5019620;28;20055;-71
2023/08/16 08:16:46;;;;;;;9.73;5.45;;;22.90;99.90;;;;;;5035688;28;20064;-71
2023/08/16 08:19:12;;;;;;;9.10;4.85;;;22.80;99.90;;;;;;5003428;28;20474;-71
2023/08/16 08:21:37;;;;;;;9.77;5.30;;;22.80;99.90;;;;;;5052113;28;20072;-71
2023/08/16 08:24:07;;;;;;;9.57;4.78;;;22.60;99.90;;;;;;5035828;28;20045;-71
2023/08/16 08:26:34;;;;;;;8.70;4.40;;;22.40;99.90;;;;;;5053372;28;20056;-72
2023/08/16 08:29:00;;;;;;;11.13;4.55;;;22.60;99.90;;;;;;5051798;28;20071;-72
2023/08/16 08:31:31;;;;;;;8.00;3.95;;;22.60;99.90;;;;;;5035122;28;20131;-72
2023/08/16 08:33:57;;;;;;;7.07;4.60;;;22.60;99.90;;;;;;5036226;28;20037;-72
2023/08/16 08:36:26;;;;;;;8.82;4.53;;;22.60;99.90;;;;;;5035069;28;20106;-72
2023/08/16 08:38:52;;;;;;;8.45;4.65;;;22.50;99.90;;;;;;5002932;28;20178;-71
2023/08/16 08:41:21;;;;;;;11.05;5.90;;;22.60;99.90;;;;;;5051867;28;20520;-72
2023/08/16 08:43:49;;;;;;;12.10;7.50;;;22.60;99.90;;;;;;5052276;28;20045;-72
2023/08/16 08:46:18;;;;;;;8.57;6.03;;;22.50;99.90;;;;;;5020437;28;20076;-66
2023/08/16 08:48:47;;;;;;;10.73;6.50;;;22.10;99.90;;;;;;5035203;28;20120;-65
2023/08/16 08:51:13;;;;;;;9.20;5.90;;;22.60;99.90;;;;;;5018975;28;20037;-65
2023/08/16 08:53:42;;;;;;;8.98;6.38;;;22.60;99.90;;;;;;5068482;28;20037;-67
2023/08/16 08:56:15;;;;;;;10.57;7.03;;;22.90;99.90;;;;;;5019601;28;20048;-67
2023/08/16 08:58:45;;;;;;;9.25;5.63;;;23.10;99.90;;;;;;5051942;28;20041;-66
2023/08/16 09:01:13;;;;;;;10.90;6.40;;;23.30;99.90;;;;;;5053288;28;20037;-66
2023/08/16 09:03:41;;;;;;;8.18;5.38;;;23.10;99.90;;;;;;5035622;28;20068;-68
2023/08/16 09:06:07;;;;;;;8.48;4.88;;;23.10;99.90;;;;;;5051588;28;20045;-66
2023/08/16 09:08:43;;;;;;;8.18;4.53;;;23.20;99.90;;;;;;5051751;28;20045;-66
2023/08/16 09:11:10;;;;;;;9.57;4.40;;;23.40;99.90;;;;;;5036251;28;20102;-66
2023/08/16 09:13:36;;;;;;;8.02;3.90;;;23.50;99.90;;;;;;5051441;28;20079;-67
2023/08/16 09:16:01;;;;;;;8.60;4.53;;;23.60;99.90;;;;;;5051620;28;20076;-66
2023/08/16 09:18:49;;;;;;;8.82;4.90;;;23.60;99.90;;;;;;5051741;28;20033;-66
2023/08/16 09:21:19;;;;;;;8.32;4.55;;;23.60;99.90;;;;;;5051447;28;20067;-67
2023/08/16 09:23:54;;;;;;;7.60;3.97;;;23.80;99.90;;;;;;5053090;28;20102;-67
2023/08/16 09:26:23;;;;;;;8.15;3.85;;;23.90;99.90;;;;;;5035496;28;20037;-68
2023/08/16 09:28:59;;;;;;;6.70;3.60;;;23.60;99.90;;;;;;5051606;28;20131;-65
2023/08/16 09:31:29;;;;;;;7.82;3.55;;;23.70;99.90;;;;;;5051427;28;20044;-67
2023/08/16 09:34:02;;;;;;;7.00;3.47;;;23.90;99.90;;;;;;5051617;28;20113;-66
2023/08/16 09:36:30;;;;;;;6.80;3.97;;;23.90;99.90;;;;;;5051377;28;20132;-65
2023/08/16 09:39:09;;;;;;;8.15;3.38;;;23.90;99.90;;;;;;5035088;28;20064;-66
2023/08/16 09:41:39;;;;;;;7.53;3.03;;;23.80;99.90;;;;;;5053234;28;20044;-65
2023/08/16 09:44:07;;;;;;;8.95;4.55;;;24.00;99.90;;;;;;5055558;28;20182;-67
2023/08/16 09:46:38;;;;;;;;;;;23.70;99.90;;;;;;5023705;28;20040;-66
2023/08/16 09:49:08;;;;;;;6.82;3.42;;;23.80;99.90;;;;;;5055107;28;19917;-65
2023/08/16 09:51:41;;;;;;;6.82;3.63;;;23.90;99.90;;;;;;5055246;28;20041;-65
2023/08/16 09:54:16;;;;;;;7.45;4.00;;;24.10;99.90;;;;;;5038393;28;20401;-65
2023/08/16 09:56:43;;;;;;;7.68;3.53;;;24.20;99.90;;;;;;5038816;28;20052;-65
2023/08/16 09:59:11;;;;;;;8.63;3.80;;;24.20;99.90;;;;;;5055122;28;20040;-67
2023/08/16 10:01:49;;;;;;;6.70;3.17;;;24.10;99.90;;;;;;5055103;28;20037;-66
2023/08/16 10:04:18;;;;;;;5.68;2.42;;;24.10;99.90;;;;;;5054825;28;20041;-64
2023/08/16 10:06:48;;;;;;;5.47;2.40;;;23.50;99.90;;;;;;5021785;28;20064;-65
2023/08/16 10:09:17;;;;;;;6.35;2.00;;;23.40;99.90;;;;;;5055002;28;20134;-65
2023/08/16 10:11:50;;;;;;;5.88;2.20;;;23.40;99.90;;;;;;5038275;28;20084;-65
2023/08/16 10:14:19;;;;;;;7.95;2.30;;;22.90;99.90;;;;;;5039258;28;20056;-65
2023/08/16 10:16:50;;;;;;;4.88;1.95;;;23.00;99.90;;;;;;5054761;28;20056;-66
2023/08/16 10:19:18;;;;;;;;;;;23.20;99.90;;;;;;5055298;28;20040;-66
2023/08/16 10:21:48;;;;;;;5.85;2.03;;;23.10;99.90;;;;;;5054461;28;20010;-66
2023/08/16 10:24:17;;;;;;;6.80;2.10;;;23.30;99.90;;;;;;5054338;28;20183;-66
2023/08/16 10:26:47;;;;;;;5.53;1.92;;;23.50;99.90;;;;;;5038448;28;20041;-66
2023/08/16 10:29:20;;;;;;;5.93;2.10;;;23.60;99.90;;;;;;5054797;28;20552;-66
2023/08/16 10:31:48;;;;;;;4.88;2.00;;;23.50;99.90;;;;;;5054172;28;20049;-65
2023/08/16 10:34:18;;;;;;;6.35;1.90;;;23.60;99.90;;;;;;5038342;28;20072;-64
2023/08/16 10:36:46;;;;;;;5.18;1.85;;;23.70;99.90;;;;;;5054058;28;20059;-65
2023/08/16 10:39:24;;;;;;;6.45;2.00;;;23.80;99.90;;;;;;5054437;28;20519;-66
2023/08/16 10:42:01;;;;;;;8.05;2.00;;;23.90;99.90;;;;;;5037969;28;20206;-65
2023/08/16 10:44:27;;;;;;;6.20;2.20;;;23.80;99.90;;;;;;5054049;28;20080;-65
2023/08/16 10:46:53;;;;;;;5.57;2.17;;;23.70;99.90;;;;;;5053927;28;20145;-66
2023/08/16 10:49:20;;;;;;;6.40;2.00;;;23.70;99.90;;;;;;5053900;28;20455;-65
2023/08/16 10:51:51;;;;;;;5.60;1.90;;;23.60;99.90;;;;;;5020834;28;20048;-66
2023/08/16 10:54:16;;;;;;;5.18;1.70;;;23.50;99.90;;;;;;5053115;28;20045;-71
2023/08/16 10:57:02;;;;;;;7.15;1.77;;;23.40;99.90;;;;;;5054071;28;20393;-71
2023/08/16 10:59:37;;;;;;;5.88;2.00;;;23.30;99.90;;;;;;5053654;28;20048;-74
2023/08/16 11:02:29;;;;;;;6.10;2.28;;;23.40;99.90;;;;;;5053886;28;20124;-72
2023/08/16 11:04:54;;;;;;;6.38;2.33;;;23.50;99.90;;;;;;5041256;28;20057;-72
2023/08/16 11:07:27;;;;;;;6.80;2.33;;;23.50;99.90;;;;;;5037289;28;20048;-65
2023/08/16 11:10:08;;;;;;;7.88;2.20;;;23.60;99.90;;;;;;5050541;28;20524;-66
2023/08/16 11:12:37;;;;;;;6.05;1.85;;;23.70;99.90;;;;;;5053472;28;20076;-66
2023/08/16 11:15:06;;;;;;;5.18;1.55;;;23.70;99.90;;;;;;5037504;28;20088;-65
2023/08/16 11:17:32;;;;;;;6.03;1.90;;;23.80;97.80;;;;;;5053652;28;20045;-65
2023/08/16 11:20:01;;;;;;;5.70;1.77;;;23.10;98.70;;;;;;5069791;28;20044;-65
2023/08/16 11:22:28;;;;;;;6.32;1.77;;;23.10;99.60;;;;;;5053682;28;20041;-65
2023/08/16 11:25:00;;;;;;;6.35;1.83;;;23.10;99.90;;;;;;5053570;28;20378;-66
2023/08/16 11:27:26;;;;;;;5.47;1.90;;;23.20;99.90;;;;;;5053373;28;20084;-65
2023/08/16 11:29:59;;;;;;;5.78;2.00;;;23.40;99.90;;;;;;5020131;28;20087;-66
2023/08/16 11:32:33;;;;;;;6.88;2.03;;;23.70;99.90;;;;;;5036629;28;20041;-64
2023/08/16 11:34:59;;;;;;;6.47;1.88;;;24.00;99.90;;;;;;5053155;28;20033;-66
2023/08/16 11:37:25;;;;;;;5.18;1.73;;;24.10;99.90;;;;;;5056615;28;20051;-66
2023/08/16 11:40:01;;;;;;;5.28;1.80;;;24.30;98.50;;;;;;5056323;28;20124;-66
2023/08/16 11:42:28;;;;;;;5.22;1.80;;;24.40;99.00;;;;;;5056542;28;20054;-66
2023/08/16 11:44:54;;;;;;;7.10;2.15;;;24.70;99.20;;;;;;5056243;28;20044;-65
2023/08/16 11:47:39;;;;;;;;;;;;;;;;;;;;;
2023/08/16 11:50:09;;;;;;;6.20;1.80;;;24.80;98.80;;;;;;5040890;28;20055;-65
2023/08/16 11:52:38;;;;;;;4.57;1.50;;;24.80;97.50;;;;;;5056030;28;20048;-65
2023/08/16 11:55:09;;;;;;;5.95;1.80;;;24.90;98.00;;;;;;5039799;28;20125;-66
2023/08/16 11:57:50;;;;;;;5.93;1.80;;;24.60;97.30;;;;;;5039507;28;20127;-66
2023/08/16 12:00:26;;;;;;;4.30;1.40;;;24.70;97.20;;;;;;5055925;28;20040;-64
2023/08/16 12:02:52;;;;;;;4.70;1.33;;;24.70;98.10;;;;;;5055835;28;20055;-66
2023/08/16 12:05:25;;;;;;;4.95;1.33;;;24.70;96.90;;;;;;5073729;28;20045;-65
2023/08/16 12:08:03;;;;;;;4.95;1.33;;;24.60;97.20;;;;;;5039378;28;20044;-66
2023/08/16 12:10:32;;;;;;;4.50;1.45;;;24.50;95.80;;;;;;5039688;28;20052;-65
2023/08/16 12:12:58;;;;;;;3.58;1.23;;;24.50;97.00;;;;;;5055745;28;20083;-66
2023/08/16 12:15:26;;;;;;;5.15;1.20;;;24.80;95.30;;;;;;5055921;28;20040;-66
2023/08/16 12:17:55;;;;;;;4.75;1.30;;;24.70;96.10;;;;;;5055655;28;20033;-66
2023/08/16 12:20:28;;;;;;;4.63;1.30;;;24.90;95.40;;;;;;5055482;28;20040;-65
2023/08/16 12:22:55;;;;;;;3.47;1.27;;;24.80;95.50;;;;;;5055482;28;20041;-66
2023/08/16 12:25:21;;;;;;;4.80;1.50;;;25.00;96.20;;;;;;5022953;28;20548;-66
2023/08/16 12:27:47;;;;;;;5.47;1.20;;;24.90;95.50;;;;;;5038998;28;20040;-66
2023/08/16 12:30:13;;;;;;;4.07;1.20;;;24.70;95.70;;;;;;5038773;28;20389;-66
2023/08/16 12:32:38;;;;;;;4.55;1.20;;;24.70;95.00;;;;;;5055279;28;20051;-66
2023/08/16 12:35:06;;;;;;;4.57;1.10;;;24.80;95.60;;;;;;5038682;28;20052;-68
2023/08/16 12:37:32;;;;;;;5.15;1.30;;;24.80;95.40;;;;;;5055224;28;20132;-66
2023/08/16 12:39:58;;;;;;;4.97;1.20;;;24.80;95.30;;;;;;5038823;28;20037;-65
2023/08/16 12:42:48;;;;;;;4.63;1.20;;;24.90;94.50;;;;;;5055534;28;20102;-65
2023/08/16 12:45:16;;;;;;;4.60;1.13;;;24.80;95.20;;;;;;5041444;28;20052;-66
2023/08/16 12:47:42;;;;;;;3.65;1.33;;;24.90;94.50;;;;;;5055510;28;20043;-67
2023/08/16 12:50:12;;;;;;;6.78;1.30;;;24.50;94.90;;;;;;5055177;28;20040;-66
2023/08/16 12:52:41;;;;;;;4.30;1.30;;;24.70;95.90;;;;;;5038432;28;20047;-66
2023/08/16 12:55:07;;;;;;;5.80;1.48;;;24.80;96.00;;;;;;5039227;28;20055;-65